Time;durP1;ratioP1;P1;durP2;ratioP2;P2;SDS_P1;SDS_P2;PMS_P1;PMS_P2;Temp;Humidity;BMP_temperature;BMP_pressure;BME280_temperature;BME280_humidity;BME280_pressure;Samples;Min_cycle;Max_cycle;Signal;HPM_P1;HPM_P2
2023/11/06 00:00:19;;;;;;;7.67;5.55;;;;;;;11.78;100.00;98226.78;1681095;85;21282;-70
2023/11/06 00:02:48;;;;;;;8.98;5.95;;;;;;;11.77;100.00;98223.18;1681060;84;21177;-69
2023/11/06 00:05:18;;;;;;;8.08;5.75;;;;;;;11.78;100.00;98228.16;1681097;85;21066;-70
2023/11/06 00:07:47;;;;;;;8.30;5.10;;;;;;;11.76;100.00;98228.38;1681324;84;21074;-69
2023/11/06 00:10:17;;;;;;;7.28;5.33;;;;;;;11.76;100.00;98227.02;1681036;85;21078;-70
2023/11/06 00:12:46;;;;;;;8.90;5.87;;;;;;;11.75;100.00;98227.55;1681034;85;21020;-70
2023/11/06 00:15:20;;;;;;;9.80;5.15;;;;;;;11.76;100.00;98222.90;1681050;85;21074;-71
2023/11/06 00:17:48;;;;;;;8.68;5.42;;;;;;;11.73;100.00;98213.27;1681036;85;21555;-72
2023/11/06 00:20:17;;;;;;;6.97;5.05;;;;;;;11.72;100.00;98215.73;1681083;85;21300;-71
2023/11/06 00:22:47;;;;;;;10.08;5.53;;;;;;;11.70;100.00;98211.55;1681303;85;21553;-69
2023/11/06 00:25:18;;;;;;;6.85;5.05;;;;;;;11.70;100.00;98216.53;1680905;85;21070;-71
2023/11/06 00:27:48;;;;;;;6.12;4.65;;;;;;;11.72;100.00;98223.13;1681144;85;21011;-68
2023/11/06 00:30:21;;;;;;;7.65;5.00;;;;;;;11.73;100.00;98216.02;1681252;85;21100;-70
2023/11/06 00:32:50;;;;;;;7.62;5.62;;;;;;;11.72;100.00;98219.02;1681193;85;21055;-68
2023/11/06 00:35:19;;;;;;;7.53;5.45;;;;;;;11.71;100.00;98218.73;1681172;85;21063;-68
2023/11/06 00:37:49;;;;;;;7.47;5.30;;;;;;;11.69;100.00;98222.24;1681122;85;21075;-70
2023/11/06 00:40:19;;;;;;;7.97;5.00;;;;;;;11.68;100.00;98230.19;1681178;84;21095;-69
2023/11/06 00:42:48;;;;;;;7.53;5.28;;;;;;;11.65;100.00;98227.95;1681028;85;21087;-71
2023/11/06 00:45:17;;;;;;;10.20;5.25;;;;;;;11.63;100.00;98221.91;1681135;85;21079;-69
2023/11/06 00:47:46;;;;;;;7.45;4.60;;;;;;;11.63;100.00;98226.84;1681371;85;21070;-69
2023/11/06 00:50:17;;;;;;;7.70;4.75;;;;;;;11.64;100.00;98228.50;1681329;85;21083;-69
2023/11/06 00:52:47;;;;;;;7.05;4.45;;;;;;;11.65;100.00;98217.81;1681275;85;21071;-70
2023/11/06 00:55:17;;;;;;;6.45;4.28;;;;;;;11.65;100.00;98224.67;1681109;85;21039;-69
2023/11/06 00:57:47;;;;;;;7.67;4.75;;;;;;;11.65;100.00;98229.33;1681162;85;21102;-69
2023/11/06 01:00:17;;;;;;;7.08;4.70;;;;;;;11.65;100.00;98227.95;1681155;85;21474;-69
2023/11/06 01:02:46;;;;;;;8.43;4.30;;;;;;;11.65;100.00;98234.27;1681135;84;21126;-69
2023/11/06 01:05:16;;;;;;;5.37;4.10;;;;;;;11.64;100.00;98233.16;1681212;85;21102;-69
2023/11/06 01:07:45;;;;;;;6.78;4.15;;;;;;;11.62;100.00;98237.53;1681298;85;21031;-70
2023/11/06 01:10:17;;;;;;;5.55;4.20;;;;;;;11.62;100.00;98244.39;1681166;85;21102;-68
2023/11/06 01:12:45;;;;;;;6.20;3.75;;;;;;;11.62;100.00;98242.19;1681210;85;21106;-69
2023/11/06 01:15:17;;;;;;;6.58;3.85;;;;;;;11.62;100.00;98243.56;1681355;85;21115;-69
2023/11/06 01:17:46;;;;;;;6.55;4.20;;;;;;;11.60;100.00;98241.08;1681141;85;21070;-68
2023/11/06 01:20:15;;;;;;;7.05;4.10;;;;;;;11.60;100.00;98246.56;1681139;85;21039;-68
2023/11/06 01:22:45;;;;;;;6.65;4.00;;;;;;;11.60;100.00;98248.47;1681236;85;21114;-70
2023/11/06 01:25:14;;;;;;;10.65;5.17;;;;;;;11.61;100.00;98248.22;1681077;85;21095;-69
2023/11/06 01:27:43;;;;;;;7.42;4.20;;;;;;;11.62;100.00;98244.39;1681333;85;21058;-69
2023/11/06 01:30:13;;;;;;;8.05;4.35;;;;;;;11.62;100.00;98248.50;1681136;85;21051;-68
2023/11/06 01:32:43;;;;;;;7.65;4.53;;;;;;;11.62;100.00;98260.02;1681373;85;21087;-68
2023/11/06 01:35:13;;;;;;;8.70;4.30;;;;;;;11.64;100.00;98260.59;1681324;85;21158;-69
2023/11/06 01:37:43;;;;;;;7.30;3.58;;;;;;;11.66;100.00;98270.22;1681352;85;21063;-69
2023/11/06 01:40:13;;;;;;;6.62;3.40;;;;;;;11.66;100.00;98266.64;1681170;84;21082;-69
2023/11/06 01:42:43;;;;;;;5.85;3.45;;;;;;;11.66;100.00;98268.84;1681319;85;21055;-69
2023/11/06 01:45:12;;;;;;;4.65;3.50;;;;;;;11.67;100.00;98267.76;1681310;85;21146;-69
2023/11/06 01:47:44;;;;;;;5.65;3.85;;;;;;;11.68;100.00;98269.95;1681142;85;21039;-68
2023/11/06 01:50:14;;;;;;;7.03;3.60;;;;;;;11.67;100.00;98263.64;1681303;85;21051;-68
2023/11/06 01:52:45;;;;;;;8.25;3.75;;;;;;;11.68;100.00;98280.94;1681318;85;21099;-69
2023/11/06 01:55:14;;;;;;;7.05;3.35;;;;;;;11.69;100.00;98291.65;1681133;85;21138;-69
2023/11/06 01:57:43;;;;;;;8.80;3.55;;;;;;;11.68;100.00;98283.67;1660257;85;21515;-69
2023/11/06 02:00:15;;;;;;;7.62;3.33;;;;;;;11.66;100.00;98286.67;1681145;85;21047;-69
2023/11/06 02:02:44;;;;;;;5.87;3.52;;;;;;;11.63;100.00;98292.67;1681131;85;21035;-67
2023/11/06 02:05:13;;;;;;;6.85;3.55;;;;;;;11.62;100.00;98299.24;1681139;85;21051;-69
2023/11/06 02:07:43;;;;;;;6.50;4.10;;;;;;;11.60;100.00;98291.81;1681273;85;21083;-69
2023/11/06 02:10:12;;;;;;;4.72;3.40;;;;;;;11.58;100.00;98299.47;1681120;85;21058;-69
2023/11/06 02:12:40;;;;;;;7.33;3.62;;;;;;;11.57;100.00;98300.55;1681326;85;21095;-68
2023/11/06 02:15:13;;;;;;;5.53;3.70;;;;;;;11.54;100.00;98307.92;1660245;85;21520;-69
2023/11/06 02:17:43;;;;;;;5.42;3.33;;;;;;;11.49;100.00;98307.86;1681127;85;21569;-69
2023/11/06 02:20:12;;;;;;;8.15;3.80;;;;;;;11.45;100.00;98302.59;1681301;85;21047;-67
2023/11/06 02:22:42;;;;;;;6.53;3.67;;;;;;;11.39;100.00;98313.20;1681329;85;21051;-68
2023/11/06 02:25:11;;;;;;;5.03;3.47;;;;;;;11.35;100.00;98318.37;1681225;85;21475;-68
2023/11/06 02:27:40;;;;;;;5.95;3.77;;;;;;;11.33;100.00;98315.59;1681099;85;21150;-68
2023/11/06 02:30:11;;;;;;;6.90;3.67;;;;;;;11.31;100.00;98329.55;1681342;85;21090;-68
2023/11/06 02:32:40;;;;;;;5.40;4.00;;;;;;;11.27;100.00;98333.05;1681104;85;21602;-68
2023/11/06 02:35:09;;;;;;;11.50;7.75;;;;;;;11.26;100.00;98343.19;1681349;85;21007;-69
2023/11/06 02:37:40;;;;;;;15.32;10.05;;;;;;;11.23;100.00;98347.81;1681111;85;21525;-70
2023/11/06 02:40:12;;;;;;;13.40;9.63;;;;;;;11.21;100.00;98350.52;1655901;86;21106;-70
2023/11/06 02:42:41;;;;;;;14.73;9.58;;;;;;;11.19;100.00;98354.87;1686879;84;21074;-70
2023/11/06 02:45:10;;;;;;;13.78;9.20;;;;;;;11.17;100.00;98352.09;1686455;85;21103;-69
2023/11/06 02:47:39;;;;;;;22.37;14.15;;;;;;;11.15;100.00;98355.63;1686405;85;21062;-69
2023/11/06 02:50:12;;;;;;;17.77;13.08;;;;;;;11.14;100.00;98351.23;1686317;85;21491;-69
2023/11/06 02:52:42;;;;;;;13.72;9.90;;;;;;;11.11;100.00;98353.94;1653576;87;21071;-70
2023/11/06 02:55:13;;;;;;;9.93;7.37;;;;;;;11.11;100.00;98349.83;1686207;85;21077;-70
2023/11/06 02:57:42;;;;;;;13.95;8.05;;;;;;;11.10;100.00;98357.21;1686218;85;21066;-68
2023/11/06 03:00:14;;;;;;;13.18;7.83;;;;;;;11.11;100.00;98364.89;1686217;85;21066;-69
2023/11/06 03:02:44;;;;;;;13.58;7.47;;;;;;;11.08;100.00;98370.87;1686259;85;21133;-70
2023/11/06 03:05:14;;;;;;;14.03;8.63;;;;;;;11.03;100.00;98381.19;1686170;84;21047;-69
2023/11/06 03:07:44;;;;;;;11.88;8.45;;;;;;;11.02;100.00;98385.01;1686123;85;21487;-70
2023/11/06 03:10:14;;;;;;;13.25;9.08;;;;;;;11.02;100.00;98392.40;1686203;85;21114;-69
2023/11/06 03:12:43;;;;;;;12.40;7.12;;;;;;;11.01;100.00;98389.37;1686455;85;21082;-70
2023/11/06 03:15:13;;;;;;;13.95;8.25;;;;;;;10.99;100.00;98390.98;1686269;85;21490;-70
2023/11/06 03:17:43;;;;;;;9.35;6.03;;;;;;;11.00;100.00;98400.04;1686254;85;21122;-70
2023/11/06 03:20:12;;;;;;;10.48;6.80;;;;;;;10.99;100.00;98399.20;1686426;85;21545;-69
2023/11/06 03:22:41;;;;;;;11.73;7.50;;;;;;;10.98;100.00;98409.88;1686118;85;21487;-68
2023/11/06 03:25:10;;;;;;;11.95;7.72;;;;;;;10.96;100.00;98412.58;1686103;85;21576;-69
2023/11/06 03:27:39;;;;;;;12.93;7.83;;;;;;;10.92;100.00;98414.98;1686318;85;21075;-69
2023/11/06 03:30:09;;;;;;;11.55;6.90;;;;;;;10.90;100.00;98422.63;1686372;85;21101;-68
2023/11/06 03:32:38;;;;;;;12.03;6.00;;;;;;;10.88;100.00;98415.73;1686451;85;21106;-69
2023/11/06 03:35:08;;;;;;;11.40;7.58;;;;;;;10.87;100.00;98424.48;1686268;85;21019;-68
2023/11/06 03:37:37;;;;;;;16.20;10.35;;;;;;;10.86;100.00;98422.00;1686329;85;21086;-68
2023/11/06 03:40:07;;;;;;;12.43;9.40;;;;;;;10.85;100.00;98425.27;1652699;86;21585;-68
2023/11/06 03:42:38;;;;;;;14.98;10.35;;;;;;;10.82;100.00;98423.03;1685657;85;21114;-68
2023/11/06 03:45:09;;;;;;;14.18;9.53;;;;;;;10.80;100.00;98426.56;1685467;85;21043;-68
2023/11/06 03:47:37;;;;;;;13.30;8.85;;;;;;;10.78;100.00;98428.17;1685492;84;21030;-68
2023/11/06 03:50:08;;;;;;;11.05;8.13;;;;;;;10.75;100.00;98427.30;1685461;85;21502;-69
2023/11/06 03:52:37;;;;;;;12.03;7.90;;;;;;;10.74;100.00;98427.55;1685542;84;21451;-69
2023/11/06 03:55:07;;;;;;;6.75;5.03;;;;;;;10.73;100.00;98434.10;1685444;85;21474;-69
2023/11/06 03:57:35;;;;;;;6.83;4.47;;;;;;;10.69;100.00;98439.24;1685535;85;21059;-68
2023/11/06 04:00:08;;;;;;;7.12;4.15;;;;;;;10.66;100.00;98437.53;1685666;85;21075;-69
2023/11/06 04:02:39;;;;;;;8.68;4.72;;;;;;;10.63;100.00;98443.50;1685063;85;21102;-68
2023/11/06 04:05:08;;;;;;;8.90;4.70;;;;;;;10.60;100.00;98453.58;1685418;85;21027;-68
2023/11/06 04:07:37;;;;;;;7.22;5.10;;;;;;;10.58;100.00;98454.36;1685531;85;21505;-68
2023/11/06 04:10:09;;;;;;;7.30;5.35;;;;;;;10.56;100.00;98457.89;1685421;84;21080;-68
2023/11/06 04:12:38;;;;;;;10.05;5.90;;;;;;;10.55;100.00;98465.81;1685462;85;21110;-68
2023/11/06 04:15:10;;;;;;;9.25;6.10;;;;;;;10.52;100.00;98464.92;1685549;84;21224;-68
2023/11/06 04:17:40;;;;;;;8.25;5.45;;;;;;;10.51;100.00;98468.73;1685757;85;21094;-68
2023/11/06 04:20:10;;;;;;;6.12;4.65;;;;;;;10.51;100.00;98474.22;1685563;84;21082;-68
2023/11/06 04:22:39;;;;;;;9.00;4.50;;;;;;;10.51;100.00;98483.27;1685561;85;21039;-69
2023/11/06 04:25:08;;;;;;;8.88;4.37;;;;;;;10.48;100.00;98485.95;1685854;85;21086;-69
2023/11/06 04:27:37;;;;;;;8.63;5.33;;;;;;;10.46;100.00;98490.01;1685692;85;21067;-68
2023/11/06 04:30:07;;;;;;;6.08;4.17;;;;;;;10.42;100.00;98494.31;1685729;84;21023;-68
2023/11/06 04:32:36;;;;;;;7.60;5.28;;;;;;;10.41;100.00;98501.69;1685528;84;21537;-70
2023/11/06 04:35:06;;;;;;;8.43;4.50;;;;;;;10.39;100.00;98507.08;1685618;84;21058;-68
2023/11/06 04:37:36;;;;;;;12.55;6.53;;;;;;;10.39;100.00;98514.75;1685720;84;21118;-69
2023/11/06 04:40:10;;;;;;;6.80;5.22;;;;;;;10.36;100.00;98519.88;1685397;85;21091;-69
2023/11/06 04:42:40;;;;;;;8.95;5.62;;;;;;;10.35;100.00;98525.90;1685745;85;21404;-68
2023/11/06 04:45:10;;;;;;;6.22;4.33;;;;;;;10.32;100.00;98530.48;1685449;84;21047;-68
2023/11/06 04:47:40;;;;;;;13.65;7.58;;;;;;;10.29;100.00;98538.35;1685506;85;21067;-68
2023/11/06 04:50:10;;;;;;;11.33;8.10;;;;;;;10.24;100.00;98540.45;1685582;84;21070;-69
2023/11/06 04:52:40;;;;;;;11.00;7.47;;;;;;;10.22;100.00;98547.23;1685528;84;21111;-68
2023/11/06 04:55:10;;;;;;;8.15;5.92;;;;;;;10.20;100.00;98550.20;1685587;85;21124;-68
2023/11/06 04:57:40;;;;;;;5.08;4.15;;;;;;;10.18;100.00;98556.42;1685897;84;21127;-68
2023/11/06 05:00:11;;;;;;;4.95;3.35;;;;;;;10.18;100.00;98567.37;1685691;84;21102;-69
2023/11/06 05:02:40;;;;;;;4.05;3.22;;;;;;;10.18;100.00;98571.48;1685734;85;21043;-69
2023/11/06 05:05:10;;;;;;;4.33;3.15;;;;;;;10.17;100.00;98574.75;1685718;84;21122;-69
2023/11/06 05:07:40;;;;;;;5.45;3.33;;;;;;;10.18;100.00;98581.05;1685273;85;21187;-69
2023/11/06 05:10:09;;;;;;;4.92;3.42;;;;;;;10.16;100.00;98587.30;1685695;84;21086;-68
2023/11/06 05:12:38;;;;;;;4.47;2.72;;;;;;;10.12;100.00;98593.80;1685292;85;21071;-68
2023/11/06 05:15:09;;;;;;;3.85;2.80;;;;;;;10.10;100.00;98592.37;1685199;85;21541;-68
2023/11/06 05:17:38;;;;;;;5.55;3.15;;;;;;;10.08;100.00;98597.25;1685711;85;21074;-69
2023/11/06 05:20:12;;;;;;;6.35;3.77;;;;;;;10.10;100.00;98591.00;1685541;85;21502;-68
2023/11/06 05:22:42;;;;;;;5.45;3.12;;;;;;;10.09;100.00;98598.91;1685719;84;21054;-69
2023/11/06 05:25:11;;;;;;;4.60;2.85;;;;;;;10.07;100.00;98603.25;1685754;85;21059;-69
2023/11/06 05:27:40;;;;;;;5.35;3.30;;;;;;;10.08;100.00;98612.30;1685691;84;21083;-69
2023/11/06 05:30:12;;;;;;;4.72;3.00;;;;;;;10.07;100.00;98613.36;1685604;85;21055;-68
2023/11/06 05:32:41;;;;;;;7.17;3.10;;;;;;;10.07;100.00;98622.41;1685740;85;21082;-69
2023/11/06 05:35:10;;;;;;;5.42;3.00;;;;;;;10.07;100.00;98638.82;1685732;85;21494;-71
2023/11/06 05:37:41;;;;;;;5.47;3.15;;;;;;;10.08;100.00;98635.02;1685650;85;21103;-69
2023/11/06 05:40:12;;;;;;;4.60;3.30;;;;;;;10.09;100.00;98637.22;1684375;85;21574;-69
2023/11/06 05:42:42;;;;;;;6.25;2.83;;;;;;;10.10;100.00;98641.63;1679127;85;21141;-70
2023/11/06 05:45:11;;;;;;;3.95;2.83;;;;;;;10.10;100.00;98642.98;1678842;85;21103;-70
2023/11/06 05:47:44;;;;;;;4.67;2.62;;;;;;;10.08;100.00;98634.19;1679094;84;21043;-68
2023/11/06 05:50:13;;;;;;;5.58;3.30;;;;;;;10.07;100.00;98652.50;1679194;85;21073;-69
2023/11/06 05:52:43;;;;;;;6.87;2.90;;;;;;;10.05;100.00;98657.91;1678888;85;21505;-69
2023/11/06 05:55:12;;;;;;;4.72;2.80;;;;;;;10.06;100.00;98658.21;1678929;85;21071;-68
2023/11/06 05:57:41;;;;;;;3.62;2.83;;;;;;;10.07;100.00;98657.14;1679064;85;21090;-68
2023/11/06 06:00:15;;;;;;;6.78;2.95;;;;;;;10.08;100.00;98658.81;1678946;85;21071;-68
2023/11/06 06:02:44;;;;;;;9.85;5.37;;;;;;;10.08;100.00;98665.66;1678928;85;21087;-70
2023/11/06 06:05:13;;;;;;;5.45;2.83;;;;;;;10.09;100.00;98671.42;1678685;85;21130;-70
2023/11/06 06:07:43;;;;;;;5.42;2.98;;;;;;;10.09;100.00;98668.69;1678830;85;21127;-68
2023/11/06 06:10:13;;;;;;;9.10;2.98;;;;;;;10.10;100.00;98669.81;1678841;85;21058;-70
2023/11/06 06:12:42;;;;;;;5.53;3.10;;;;;;;10.14;100.00;98681.13;1679021;85;21078;-69
2023/11/06 06:15:11;;;;;;;5.97;3.12;;;;;;;10.16;100.00;98684.45;1678907;85;21050;-70
2023/11/06 06:17:40;;;;;;;5.83;2.90;;;;;;;10.20;100.00;98675.23;1678834;85;21027;-69
2023/11/06 06:20:12;;;;;;;6.20;4.17;;;;;;;10.23;100.00;98684.38;1678901;85;21110;-68
2023/11/06 06:22:42;;;;;;;6.15;3.60;;;;;;;10.24;100.00;98700.55;1679096;85;21055;-69
2023/11/06 06:25:12;;;;;;;4.65;3.17;;;;;;;10.26;100.00;98702.52;1678663;85;21060;-69
2023/11/06 06:27:41;;;;;;;4.60;2.72;;;;;;;10.29;100.00;98695.20;1679030;85;21063;-70
2023/11/06 06:30:14;;;;;;;4.55;2.80;;;;;;;10.32;100.00;98706.20;1678714;85;21467;-68
2023/11/06 06:32:44;;;;;;;5.95;2.52;;;;;;;10.36;100.00;98706.03;1678700;85;21025;-71
2023/11/06 06:35:14;;;;;;;4.78;2.47;;;;;;;10.38;100.00;98700.62;1678680;85;21490;-68
2023/11/06 06:37:43;;;;;;;6.95;4.15;;;;;;;10.42;100.00;98716.06;1679002;85;21051;-68
2023/11/06 06:40:12;;;;;;;5.90;2.45;;;;;;;10.42;100.00;98707.31;1679052;85;21486;-69
2023/11/06 06:42:41;;;;;;;6.25;4.25;;;;;;;10.48;100.00;98715.94;1681014;85;21047;-69
2023/11/06 06:45:10;;;;;;;7.42;3.10;;;;;;;10.50;100.00;98719.81;1662183;85;21067;-68
2023/11/06 06:47:39;;;;;;;5.53;2.65;;;;;;;10.52;100.00;98718.20;1680769;84;21119;-69
2023/11/06 06:50:09;;;;;;;4.90;2.75;;;;;;;10.55;100.00;98716.36;1679604;85;21537;-69
2023/11/06 06:52:38;;;;;;;4.95;2.83;;;;;;;10.57;100.00;98712.84;1680886;85;21110;-69
2023/11/06 06:55:08;;;;;;;6.08;3.52;;;;;;;10.59;99.62;98721.12;1681226;84;21431;-70
2023/11/06 06:57:37;;;;;;;10.00;4.25;;;;;;;10.62;98.91;98707.48;1680985;85;21102;-69
2023/11/06 07:00:08;;;;;;;6.00;3.20;;;;;;;10.65;98.85;98705.63;1681202;85;21051;-68
2023/11/06 07:02:38;;;;;;;6.60;3.30;;;;;;;10.67;98.58;98708.97;1680656;85;21711;-69
2023/11/06 07:05:09;;;;;;;4.75;2.90;;;;;;;10.72;98.45;98714.56;1679483;85;21182;-69
2023/11/06 07:07:38;;;;;;;6.17;3.10;;;;;;;10.74;98.35;98722.83;1680442;85;21256;-69
2023/11/06 07:10:08;;;;;;;5.87;2.50;;;;;;;10.79;98.06;98728.95;1680944;85;21094;-68
2023/11/06 07:12:38;;;;;;;4.78;2.60;;;;;;;10.84;97.96;98729.61;1680814;85;21055;-68
2023/11/06 07:15:09;;;;;;;4.85;2.80;;;;;;;10.89;97.19;98732.45;1680604;85;21039;-69
2023/11/06 07:17:38;;;;;;;6.03;2.30;;;;;;;10.94;97.24;98736.14;1681185;85;21102;-68
2023/11/06 07:20:09;;;;;;;5.22;2.27;;;;;;;10.98;97.18;98727.73;1681157;85;21059;-69
2023/11/06 07:22:37;;;;;;;6.28;2.10;;;;;;;11.03;96.96;98737.44;1681155;85;21509;-69
2023/11/06 07:25:07;;;;;;;5.55;2.35;;;;;;;11.11;96.89;98745.86;1680678;85;21475;-68
2023/11/06 07:27:37;;;;;;;4.62;2.25;;;;;;;11.32;97.65;98748.48;1680633;85;21067;-69
2023/11/06 07:30:07;;;;;;;6.12;2.72;;;;;;;11.78;97.96;98753.55;1681149;85;21063;-69
2023/11/06 07:32:36;;;;;;;7.33;3.37;;;;;;;12.37;96.41;98763.98;1680691;85;21122;-69
2023/11/06 07:35:06;;;;;;;5.60;2.70;;;;;;;12.88;93.45;98766.14;1680823;85;21103;-70
2023/11/06 07:37:36;;;;;;;5.75;1.90;;;;;;;13.41;90.99;98770.21;1680371;85;21090;-69
2023/11/06 07:40:11;;;;;;;4.10;2.15;;;;;;;13.91;87.69;98764.49;1680999;85;21541;-69
2023/11/06 07:42:41;;;;;;;4.15;2.10;;;;;;;14.45;85.30;98763.67;1675612;85;21107;-70
2023/11/06 07:45:11;;;;;;;2.98;1.85;;;;;;;14.91;81.92;98761.53;1674653;84;21499;-68
2023/11/06 07:47:40;;;;;;;3.35;2.00;;;;;;;15.26;78.40;98768.38;1674401;86;21059;-69
2023/11/06 07:50:10;;;;;;;6.12;2.50;;;;;;;15.54;75.09;98772.09;1674400;86;21087;-71
2023/11/06 07:52:41;;;;;;;3.52;2.12;;;;;;;15.78;73.66;98774.45;1674428;86;21577;-70
2023/11/06 07:55:10;;;;;;;5.90;1.90;;;;;;;16.07;72.77;98771.48;1674413;86;21163;-70
2023/11/06 07:57:39;;;;;;;4.03;2.50;;;;;;;16.25;70.81;98781.74;1674515;86;21107;-69
2023/11/06 08:00:13;;;;;;;3.02;1.70;;;;;;;16.43;70.06;98772.95;1674649;86;21067;-70
2023/11/06 08:02:43;;;;;;;2.60;2.00;;;;;;;16.56;69.48;98784.84;1674367;86;21572;-72
2023/11/06 08:05:12;;;;;;;3.70;1.67;;;;;;;16.58;65.48;98781.80;1674384;86;21079;-69
2023/11/06 08:07:42;;;;;;;2.92;1.70;;;;;;;16.46;66.52;98788.43;1674607;86;21047;-69
2023/11/06 08:10:12;;;;;;;2.75;1.70;;;;;;;16.46;66.79;98787.05;1674410;86;21102;-69
2023/11/06 08:12:42;;;;;;;4.33;1.67;;;;;;;16.37;64.40;98802.52;1674354;86;21514;-70
2023/11/06 08:15:11;;;;;;;4.85;1.80;;;;;;;16.21;65.01;98786.16;1674621;86;21091;-69
2023/11/06 08:17:40;;;;;;;3.27;1.57;;;;;;;16.00;64.43;98799.10;1674440;86;21553;-71
2023/11/06 08:20:11;;;;;;;2.77;1.75;;;;;;;15.75;64.98;98812.28;1674719;86;21075;-69
2023/11/06 08:22:39;;;;;;;1.77;1.20;;;;;;;15.58;65.65;98800.03;1674401;86;21059;-69
2023/11/06 08:25:11;;;;;;;4.78;1.57;;;;;;;15.36;65.80;98808.45;1674574;86;21523;-69
2023/11/06 08:27:40;;;;;;;4.33;1.70;;;;;;;15.23;66.96;98812.52;1674429;86;21495;-68
2023/11/06 08:30:12;;;;;;;5.25;1.55;;;;;;;15.14;68.23;98809.98;1674370;86;21114;-69
2023/11/06 08:32:41;;;;;;;3.45;1.95;;;;;;;15.03;66.90;98815.15;1674623;86;21059;-70
2023/11/06 08:35:10;;;;;;;3.55;1.70;;;;;;;14.91;67.81;98821.38;1674462;86;21111;-68
2023/11/06 08:37:39;;;;;;;2.30;1.15;;;;;;;14.76;67.67;98821.25;1674411;86;21071;-68
2023/11/06 08:40:09;;;;;;;2.77;1.40;;;;;;;14.60;68.66;98821.68;1674553;86;21098;-68
2023/11/06 08:42:39;;;;;;;2.30;1.85;;;;;;;14.51;68.79;98821.88;1675695;84;21131;-69
2023/11/06 08:45:10;;;;;;;3.83;1.90;;;;;;;14.46;69.25;98825.96;1676483;85;21083;-68
2023/11/06 08:47:44;;;;;;;5.35;1.90;;;;;;;14.40;68.74;98820.92;1676457;85;21537;-69
2023/11/06 08:50:13;;;;;;;1.77;1.20;;;;;;;14.34;68.97;98834.91;1671424;84;21536;-69
2023/11/06 08:52:42;;;;;;;1.92;1.10;;;;;;;14.29;69.84;98843.37;1663836;85;21036;-69
2023/11/06 08:55:10;;;;;;;2.70;1.40;;;;;;;14.26;69.87;98849.41;1670486;85;21038;-69
2023/11/06 08:57:40;;;;;;;2.20;1.77;;;;;;;14.22;69.84;98848.80;1675143;85;21510;-69
2023/11/06 09:00:10;;;;;;;4.83;2.20;;;;;;;14.18;70.31;98855.38;1669542;85;21103;-67
2023/11/06 09:02:38;;;;;;;1.80;1.32;;;;;;;14.18;70.59;98862.27;1669308;85;21063;-71
2023/11/06 09:05:08;;;;;;;3.20;1.40;;;;;;;14.19;70.40;98863.09;1674818;86;21071;-68
2023/11/06 09:07:38;;;;;;;2.90;1.00;;;;;;;14.23;69.97;98869.75;1674765;85;21192;-69
2023/11/06 09:10:09;;;;;;;2.27;1.30;;;;;;;14.29;69.51;98869.55;1674846;86;21044;-70
2023/11/06 09:12:40;;;;;;;4.47;1.20;;;;;;;14.28;68.83;98858.23;1675131;85;21129;-69
2023/11/06 09:15:10;;;;;;;2.58;1.15;;;;;;;14.25;69.37;98854.62;1674847;86;21540;-69
2023/11/06 09:17:39;;;;;;;2.27;1.40;;;;;;;14.24;69.03;98845.25;1675188;85;21102;-70
2023/11/06 09:20:09;;;;;;;2.77;0.98;;;;;;;14.19;68.99;98854.28;1674791;85;22098;-68
2023/11/06 09:22:38;;;;;;;2.95;1.40;;;;;;;14.18;68.81;98848.49;1674872;86;21044;-69
2023/11/06 09:25:08;;;;;;;1.77;1.22;;;;;;;14.16;68.47;98858.10;1671319;86;21456;-68
2023/11/06 09:27:38;;;;;;;2.72;1.30;;;;;;;14.12;68.99;98849.53;1667455;86;21500;-70
2023/11/06 09:30:09;;;;;;;2.72;1.65;;;;;;;14.15;69.25;98849.01;1667223;85;21019;-70
2023/11/06 09:32:38;;;;;;;2.37;1.40;;;;;;;14.18;69.47;98857.30;1667255;85;21091;-68
2023/11/06 09:35:08;;;;;;;1.82;1.30;;;;;;;14.19;69.17;98861.17;1667476;85;21031;-69
2023/11/06 09:37:37;;;;;;;6.00;2.27;;;;;;;14.21;68.78;98860.37;1667343;86;21047;-68
2023/11/06 09:40:11;;;;;;;1.67;1.22;;;;;;;14.19;68.62;98869.44;1666996;86;21471;-68
2023/11/06 09:42:40;;;;;;;3.15;1.42;;;;;;;14.18;68.44;98866.39;1657736;85;21035;-68
2023/11/06 09:45:10;;;;;;;1.60;1.10;;;;;;;14.17;68.34;98866.66;1612339;87;21784;-68
2023/11/06 09:47:51;;;;;;;3.00;1.07;;;;;;;14.15;68.05;98868.29;1651287;86;21087;-69
2023/11/06 09:50:24;;;;;;;1.55;1.00;;;;;;;14.15;68.39;98868.84;1612724;88;21050;-71
2023/11/06 09:52:54;;;;;;;3.15;1.30;;;;;;;14.15;68.33;98875.72;1650377;86;21056;-68
2023/11/06 09:55:23;;;;;;;1.85;1.10;;;;;;;14.19;69.07;98874.11;1612618;87;21114;-69
2023/11/06 09:57:52;;;;;;;2.55;1.40;;;;;;;14.23;69.11;98878.84;1650259;87;21052;-70
2023/11/06 10:00:22;;;;;;;2.55;1.50;;;;;;;14.27;68.51;98885.50;1635244;88;21092;-68
2023/11/06 10:02:53;;;;;;;4.17;1.77;;;;;;;14.31;67.68;98872.63;1672879;85;21035;-67
2023/11/06 10:05:22;;;;;;;2.55;1.30;;;;;;;14.34;66.94;98885.88;1637405;87;21147;-69
2023/11/06 10:07:52;;;;;;;1.05;0.95;;;;;;;14.35;66.83;98897.19;1637697;87;21526;-70
2023/11/06 10:10:23;;;;;;;2.00;1.17;;;;;;;14.36;67.11;98924.48;1672624;85;21044;-68
2023/11/06 10:13:05;;;;;;;1.85;0.95;;;;;;;14.35;65.97;98927.49;1637586;87;21130;-71
2023/11/06 10:15:35;;;;;;;2.45;0.98;;;;;;;14.32;66.08;98921.95;1637393;87;21568;-69
2023/11/06 10:18:14;;;;;;;2.52;1.60;;;;;;;14.26;66.10;98925.16;1637620;87;21064;-69
2023/11/06 10:20:52;;;;;;;3.10;1.17;;;;;;;14.22;66.50;98924.56;1637511;87;21095;-68
2023/11/06 10:23:30;;;;;;;1.73;1.20;;;;;;;14.19;67.14;98927.28;1637840;87;21092;-69
2023/11/06 10:26:13;;;;;;;2.22;1.25;;;;;;;14.14;66.52;98940.16;1637473;87;21222;-67
2023/11/06 10:28:42;;;;;;;2.58;1.77;;;;;;;14.06;66.88;98946.95;1637384;87;21056;-69
2023/11/06 10:31:11;;;;;;;5.92;1.92;;;;;;;14.01;67.41;98938.62;1672464;86;21542;-69
2023/11/06 10:33:40;;;;;;;2.33;1.20;;;;;;;14.00;68.01;98947.97;1637589;87;21073;-69
2023/11/06 10:36:16;;;;;;;3.80;1.12;;;;;;;14.01;67.97;98936.41;1637377;88;21237;-68
2023/11/06 10:38:45;;;;;;;5.00;1.72;;;;;;;13.99;67.91;98949.06;1672857;85;21508;-67
2023/11/06 10:41:28;;;;;;;2.52;1.42;;;;;;;13.96;68.03;98953.70;1637182;87;21155;-68
2023/11/06 10:43:49;;;;;;;2.67;1.25;;;;;;;13.95;68.59;98950.12;1643880;86;21095;-70
2023/11/06 10:46:20;;;;;;;4.80;1.50;;;;;;;13.99;68.63;98963.38;1677924;85;21076;-69
2023/11/06 10:48:54;;;;;;;2.22;1.10;;;;;;;14.00;68.51;98952.11;1646022;87;21541;-68
2023/11/06 10:51:23;;;;;;;1.85;1.00;;;;;;;14.00;68.87;98957.61;1679237;85;21111;-69
2023/11/06 10:53:52;;;;;;;7.58;1.77;;;;;;;14.00;68.67;98960.37;1646017;86;21073;-71
2023/11/06 10:56:22;;;;;;;3.25;1.22;;;;;;;14.00;68.11;98957.61;1679589;85;21064;-68
2023/11/06 10:58:50;;;;;;;3.35;1.20;;;;;;;13.99;68.12;98956.49;1660752;85;21112;-68
2023/11/06 11:01:22;;;;;;;2.98;1.40;;;;;;;13.98;68.12;98954.28;1685554;84;21077;-68
2023/11/06 11:03:52;;;;;;;3.85;1.62;;;;;;;13.95;68.37;98959.75;1685498;85;21446;-69
2023/11/06 11:06:22;;;;;;;2.22;1.22;;;;;;;13.93;68.55;98961.93;1685678;84;21038;-67
2023/11/06 11:08:51;;;;;;;6.08;1.00;;;;;;;13.94;68.83;98966.89;1685458;84;21492;-68
2023/11/06 11:11:20;;;;;;;4.67;1.30;;;;;;;13.92;67.66;98976.78;1685407;85;21064;-68
2023/11/06 11:13:49;;;;;;;1.55;1.10;;;;;;;13.92;67.25;98977.33;1685310;85;21528;-68
2023/11/06 11:16:38;;;;;;;1.05;0.80;;;;;;;13.92;66.97;98989.72;1685558;84;21111;-69
2023/11/06 11:19:27;;;;;;;1.85;1.15;;;;;;;13.93;66.69;98986.71;1660608;85;21478;-69
2023/11/06 11:22:15;;;;;;;1.70;1.15;;;;;;;13.93;67.57;98973.48;1685547;85;21481;-70
2023/11/06 11:24:49;;;;;;;2.52;1.30;;;;;;;13.96;67.72;98985.37;1685490;85;21482;-68
2023/11/06 11:27:23;;;;;;;2.37;1.55;;;;;;;13.98;66.88;98985.11;1678600;85;21545;-67
2023/11/06 11:29:58;;;;;;;2.15;1.10;;;;;;;13.99;67.39;98994.50;1678831;84;21031;-67
2023/11/06 11:32:47;;;;;;;2.52;1.22;;;;;;;14.01;67.75;98988.19;1678835;85;21038;-68
2023/11/06 11:35:19;;;;;;;4.28;1.62;;;;;;;14.01;67.48;99008.84;1678028;84;21082;-70
2023/11/06 11:37:59;;;;;;;6.47;2.30;;;;;;;14.01;68.00;98994.25;1678733;84;21508;-69
2023/11/06 11:40:46;;;;;;;3.55;1.77;;;;;;;14.01;68.06;99000.58;1678697;84;21042;-68